Time;durP1;ratioP1;P1;durP2;ratioP2;P2;SDS_P1;SDS_P2;PMS_P1;PMS_P2;Temp;Humidity;BMP_temperature;BMP_pressure;BME280_temperature;BME280_humidity;BME280_pressure;Samples;Min_cycle;Max_cycle;Signal;HPM_P1;HPM_P2
2021/12/10 00:01:06;;;;;;;36.42;16.02;;;;;;;18.08;63.41;97702.81;3134217;28;20531;-46
2021/12/10 00:02:39;;;;;;;29.83;15.57;;;;;;;18.07;63.56;97698.47;3135472;28;20050;-51
2021/12/10 00:04:12;;;;;;;31.10;15.50;;;;;;;18.05;64.13;97701.38;3137327;28;20156;-46
2021/12/10 00:05:48;;;;;;;38.17;17.65;;;;;;;18.03;63.98;97692.72;3136724;28;20060;-44
2021/12/10 00:07:23;;;;;;;39.42;16.20;;;;;;;18.03;64.20;97694.59;3137043;28;20063;-43
2021/12/10 00:08:59;;;;;;;33.20;15.60;;;;;;;18.02;64.16;97692.94;3138480;28;20168;-47
2021/12/10 00:10:34;;;;;;;33.17;15.60;;;;;;;18.00;64.03;97697.72;3135247;28;20041;-47
2021/12/10 00:12:11;;;;;;;38.95;16.00;;;;;;;17.98;64.28;97697.94;3135650;28;20049;-48
2021/12/10 00:13:45;;;;;;;32.55;14.85;;;;;;;17.97;64.15;97699.00;3135380;28;20053;-51
2021/12/10 00:15:17;;;;;;;40.10;17.58;;;;;;;17.96;64.24;97702.69;3133491;28;20091;-49
2021/12/10 00:16:51;;;;;;;39.25;15.80;;;;;;;17.95;64.12;97705.63;3137930;28;20560;-50
2021/12/10 00:18:30;;;;;;;28.95;15.68;;;;;;;17.92;64.25;97689.97;3132832;28;20090;-49
2021/12/10 00:20:04;;;;;;;33.67;15.60;;;;;;;17.91;64.19;97696.34;3137839;28;20464;-45
2021/12/10 00:21:36;;;;;;;36.88;15.68;;;;;;;17.88;64.35;97692.25;3135658;28;20425;-49
2021/12/10 00:23:11;;;;;;;34.05;15.40;;;;;;;17.89;64.37;97698.47;3137573;28;20052;-49
2021/12/10 00:24:46;;;;;;;27.75;15.18;;;;;;;17.86;64.25;97689.00;3137568;28;20052;-49
2021/12/10 00:26:20;;;;;;;33.22;14.68;;;;;;;17.85;64.50;97692.69;3134814;28;20086;-48
2021/12/10 00:27:55;;;;;;;35.28;14.95;;;;;;;17.83;64.43;97700.97;3134191;28;20055;-46
2021/12/10 00:29:27;;;;;;;36.03;15.90;;;;;;;17.82;64.49;97695.81;3135655;28;20060;-45
2021/12/10 00:31:14;;;;;;;33.67;15.60;;;;;;;17.80;64.48;97701.44;3137192;28;20049;-49
2021/12/10 00:32:57;;;;;;;29.95;13.57;;;;;;;17.77;64.43;97698.31;3132941;28;20044;-49
2021/12/10 00:34:32;;;;;;;31.52;15.15;;;;;;;17.76;64.58;97696.69;3135441;28;20656;-48
2021/12/10 00:36:05;;;;;;;36.33;14.02;;;;;;;17.74;64.49;97690.72;3137439;28;20072;-44
2021/12/10 00:37:37;;;;;;;39.40;15.85;;;;;;;17.71;64.55;97691.16;3136199;28;20125;-46
2021/12/10 00:39:14;;;;;;;30.08;14.38;;;;;;;17.70;64.72;97690.34;3137718;28;20086;-48
2021/12/10 00:40:46;;;;;;;36.17;15.15;;;;;;;17.69;64.73;97695.91;3137545;28;20044;-45
2021/12/10 00:42:22;;;;;;;35.25;15.25;;;;;;;17.68;64.66;97696.97;3132865;28;20106;-45
2021/12/10 00:43:54;;;;;;;30.50;13.90;;;;;;;17.67;64.63;97695.31;3136893;28;20056;-48
2021/12/10 00:45:27;;;;;;;27.80;13.90;;;;;;;17.65;64.82;97703.59;3135300;28;20425;-46
2021/12/10 00:46:59;;;;;;;33.45;16.13;;;;;;;17.61;64.80;97692.47;3137973;28;20044;-49
2021/12/10 00:48:33;;;;;;;35.05;15.70;;;;;;;17.60;64.79;97693.50;3136192;28;20041;-47
2021/12/10 00:50:09;;;;;;;28.75;13.95;;;;;;;17.59;64.76;97691.06;3131800;28;20086;-49
2021/12/10 00:51:42;;;;;;;30.08;14.50;;;;;;;17.57;64.86;97691.25;3134604;28;20047;-44
2021/12/10 00:53:14;;;;;;;36.38;13.68;;;;;;;17.56;64.78;97694.19;3136076;28;20078;-52
2021/12/10 00:54:46;;;;;;;22.77;13.73;;;;;;;17.54;64.74;97690.91;3137246;28;20044;-49
2021/12/10 00:56:18;;;;;;;30.80;14.38;;;;;;;17.51;64.88;97692.16;3133973;28;21020;-46
2021/12/10 00:57:49;;;;;;;28.33;15.57;;;;;;;17.51;64.82;97700.19;3136626;28;20064;-49
2021/12/10 00:59:21;;;;;;;27.45;14.45;;;;;;;17.50;64.97;97706.59;3135301;28;20051;-43
2021/12/10 01:00:57;;;;;;;34.72;13.25;;;;;;;17.46;64.99;97702.69;3135119;28;20052;-49
2021/12/10 01:02:29;;;;;;;27.70;12.75;;;;;;;17.46;65.09;97710.75;3135002;28;20671;-51
2021/12/10 01:04:08;;;;;;;34.10;14.57;;;;;;;17.43;65.04;97709.31;3135603;28;20044;-47
2021/12/10 01:05:44;;;;;;;28.42;13.57;;;;;;;17.42;64.95;97706.88;3121934;28;20056;-48
2021/12/10 01:07:19;;;;;;;27.60;14.20;;;;;;;17.42;65.00;97706.88;3126792;28;20406;-45
2021/12/10 01:08:55;;;;;;;38.25;14.50;;;;;;;17.39;64.97;97708.13;3137502;28;20075;-46
2021/12/10 01:10:29;;;;;;;32.83;15.27;;;;;;;17.38;65.09;97700.28;3117830;28;20037;-45
2021/12/10 01:12:07;;;;;;;28.67;14.70;;;;;;;17.36;65.17;97705.88;3124059;28;20498;-45
2021/12/10 01:13:42;;;;;;;26.52;13.45;;;;;;;17.34;65.11;97701.78;3124416;28;20084;-48
2021/12/10 01:15:36;;;;;;;24.88;13.85;;;;;;;17.33;65.07;97705.50;3119453;28;20635;-45
2021/12/10 01:24:38;;;;;;;23.35;11.40;;;;;;;17.23;65.30;97694.44;3121590;28;20632;-52
2021/12/10 01:26:24;;;;;;;30.55;12.00;;;;;;;17.22;65.38;97688.28;3123037;28;20049;-48
2021/12/10 01:27:56;;;;;;;33.95;12.75;;;;;;;17.22;65.30;97692.78;3124621;28;20060;-46
2021/12/10 01:29:31;;;;;;;27.73;13.40;;;;;;;17.18;65.49;97693.22;3124005;28;20060;-47
2021/12/10 01:31:04;;;;;;;22.92;13.23;;;;;;;17.16;65.54;97689.97;3123979;28;20136;-46
2021/12/10 01:32:39;;;;;;;31.98;14.25;;;;;;;17.17;65.86;97690.78;3124825;28;20057;-48
2021/12/10 01:34:11;;;;;;;25.88;12.10;;;;;;;17.13;66.11;97684.19;3123284;28;20049;-46
2021/12/10 01:35:48;;;;;;;20.60;12.23;;;;;;;17.11;66.16;97688.97;3123670;28;20049;-46
2021/12/10 01:37:21;;;;;;;22.65;11.55;;;;;;;17.11;66.10;97699.69;3124037;28;20049;-45
2021/12/10 01:38:55;;;;;;;24.38;12.00;;;;;;;17.09;66.20;97705.25;3124663;28;20075;-44
2021/12/10 01:40:27;;;;;;;25.25;11.95;;;;;;;17.08;66.22;97698.25;3124406;28;20095;-45
2021/12/10 01:42:12;;;;;;;25.42;12.57;;;;;;;17.07;65.92;97701.94;3123408;28;20128;-45
2021/12/10 01:43:47;;;;;;;26.77;13.20;;;;;;;17.06;66.33;97694.97;3123397;28;20049;-48
2021/12/10 01:45:22;;;;;;;33.33;12.50;;;;;;;17.05;66.13;97698.69;3122379;28;20103;-52
2021/12/10 01:46:54;;;;;;;28.73;13.02;;;;;;;17.02;66.19;97683.06;3125483;28;20644;-45
2021/12/10 01:48:29;;;;;;;25.25;11.77;;;;;;;17.02;66.22;97683.06;3121526;28;20056;-42
2021/12/10 01:50:00;;;;;;;27.15;12.65;;;;;;;17.00;66.13;97685.13;3125250;28;20114;-44
2021/12/10 01:51:34;;;;;;;24.50;12.50;;;;;;;16.99;66.13;97686.13;3124083;28;20476;-45
2021/12/10 01:53:11;;;;;;;26.55;11.23;;;;;;;16.98;66.13;97687.19;3123982;28;20144;-50
2021/12/10 01:54:47;;;;;;;25.83;13.25;;;;;;;16.96;66.14;97684.72;3122624;28;20591;-47
2021/12/10 01:56:26;;;;;;;23.63;12.23;;;;;;;16.96;66.08;97683.88;3124309;28;20061;-46
2021/12/10 01:57:58;;;;;;;30.25;13.48;;;;;;;16.95;65.97;97679.59;3124707;28;20502;-46
2021/12/10 01:59:33;;;;;;;25.42;13.00;;;;;;;16.93;66.01;97678.97;3123957;28;20052;-49
2021/12/10 02:01:07;;;;;;;23.35;11.95;;;;;;;16.90;66.03;97668.69;3126089;28;20052;-50
2021/12/10 02:02:43;;;;;;;23.13;11.73;;;;;;;16.88;66.06;97665.41;3127152;28;20114;-44
2021/12/10 02:04:18;;;;;;;21.60;11.32;;;;;;;16.87;66.18;97659.22;3123282;28;20465;-47
2021/12/10 02:05:50;;;;;;;27.55;12.95;;;;;;;16.86;66.20;97664.81;3118888;28;20083;-46
2021/12/10 02:07:26;;;;;;;29.65;12.57;;;;;;;16.85;66.09;97671.19;3121905;28;20139;-45
2021/12/10 02:08:59;;;;;;;21.38;11.50;;;;;;;16.84;66.08;97670.38;3124438;28;20045;-48
2021/12/10 02:10:31;;;;;;;22.55;10.65;;;;;;;16.82;66.17;97672.44;3123606;28;20367;-48
2021/12/10 02:12:03;;;;;;;25.60;10.75;;;;;;;16.80;66.20;97676.38;3124303;28;20532;-44
2021/12/10 02:13:35;;;;;;;;;;;;;;;16.80;66.11;97674.53;3123559;28;20106;-44
2021/12/10 02:15:11;;;;;;;27.10;11.20;;;;;;;16.78;66.05;97670.44;3124574;28;19932;-42
2021/12/10 02:16:44;;;;;;;20.38;9.93;;;;;;;16.76;66.28;97662.56;3123049;28;20064;-42
2021/12/10 02:18:16;;;;;;;16.33;11.75;;;;;;;16.75;66.11;97666.28;3123379;28;20057;-43
2021/12/10 02:19:48;;;;;;;18.92;10.88;;;;;;;16.75;66.24;97666.28;3123269;28;20128;-42
2021/12/10 02:21:24;;;;;;;25.20;11.00;;;;;;;16.72;66.12;97666.72;3122015;28;20452;-42
2021/12/10 02:22:56;;;;;;;24.85;11.70;;;;;;;16.70;66.25;97669.59;3125744;28;20045;-43
2021/12/10 02:24:28;;;;;;;22.55;11.38;;;;;;;16.69;66.17;97669.84;3117434;28;20047;-48
2021/12/10 02:26:01;;;;;;;28.25;11.20;;;;;;;16.67;66.38;97670.03;3122264;28;20452;-45
2021/12/10 02:27:33;;;;;;;20.10;11.35;;;;;;;16.67;66.12;97661.19;3121966;28;20048;-43
2021/12/10 02:29:05;;;;;;;24.42;11.00;;;;;;;16.65;66.06;97656.03;3125215;28;20771;-44
2021/12/10 02:30:39;;;;;;;20.27;10.25;;;;;;;16.63;66.41;97650.09;3122138;28;20060;-43
2021/12/10 02:32:11;;;;;;;18.85;9.68;;;;;;;16.61;66.15;97649.47;3123404;28;21257;-42
2021/12/10 02:33:43;;;;;;;23.75;10.77;;;;;;;16.61;66.44;97637.94;3122324;28;20203;-43
2021/12/10 02:35:16;;;;;;;23.58;10.70;;;;;;;16.59;66.28;97635.47;3121052;28;20592;-41
2021/12/10 02:36:50;;;;;;;23.83;11.05;;;;;;;16.58;66.35;97641.88;3124340;28;20053;-43
2021/12/10 02:38:22;;;;;;;22.90;10.38;;;;;;;16.57;66.37;97632.19;3123337;28;20107;-43
2021/12/10 02:39:54;;;;;;;24.17;11.02;;;;;;;16.56;66.46;97641.25;3123011;28;20053;-43
2021/12/10 02:41:29;;;;;;;22.48;10.23;;;;;;;16.53;66.46;97642.50;3122640;28;20045;-43
2021/12/10 02:43:07;;;;;;;28.52;14.02;;;;;;;16.51;66.36;97636.53;3119608;28;20049;-43
2021/12/10 02:44:39;;;;;;;21.23;10.73;;;;;;;16.50;66.50;97642.94;3121604;28;20075;-42
2021/12/10 02:46:11;;;;;;;18.27;10.48;;;;;;;16.50;66.38;97642.13;3123439;28;20053;-44
2021/12/10 02:47:43;;;;;;;15.00;9.10;;;;;;;16.48;66.51;97638.84;3122358;28;20553;-42
2021/12/10 02:49:15;;;;;;;18.38;9.95;;;;;;;16.47;66.54;97637.19;3120666;28;20049;-41
2021/12/10 02:50:48;;;;;;;20.10;10.35;;;;;;;16.46;66.38;97631.00;3124604;28;20081;-43
2021/12/10 02:52:23;;;;;;;21.02;9.68;;;;;;;16.44;66.44;97630.41;3120819;28;20084;-42
2021/12/10 02:53:54;;;;;;;21.48;9.30;;;;;;;16.45;66.50;97628.56;3124116;28;20537;-43
2021/12/10 02:55:26;;;;;;;26.27;11.23;;;;;;;16.42;66.37;97629.81;3121493;28;20053;-43
2021/12/10 02:56:58;;;;;;;19.42;10.10;;;;;;;16.41;66.48;97633.53;3124592;28;20140;-44
2021/12/10 02:58:30;;;;;;;19.15;9.43;;;;;;;16.39;66.49;97630.22;3118082;28;20076;-41
2021/12/10 03:00:02;;;;;;;22.85;11.02;;;;;;;16.37;66.54;97632.28;3123184;28;20057;-42
2021/12/10 03:01:38;;;;;;;24.95;10.45;;;;;;;16.37;66.57;97637.66;3121978;28;20059;-46
2021/12/10 03:03:10;;;;;;;25.33;10.25;;;;;;;16.36;66.66;97624.50;3123792;28;20045;-44
2021/12/10 03:04:43;;;;;;;18.92;8.63;;;;;;;16.35;66.69;97625.50;3121668;28;20044;-42
2021/12/10 03:06:17;;;;;;;19.77;9.02;;;;;;;16.33;66.52;97619.56;3122002;28;20140;-41
2021/12/10 03:07:51;;;;;;;23.90;9.50;;;;;;;16.30;66.80;97618.97;3123933;28;20073;-42
2021/12/10 03:09:26;;;;;;;20.52;8.82;;;;;;;16.30;66.66;97623.50;3121348;28;20954;-44
2021/12/10 03:10:57;;;;;;;18.85;9.82;;;;;;;16.28;66.57;97610.31;3123406;28;20049;-43
2021/12/10 03:12:31;;;;;;;24.13;9.45;;;;;;;16.28;66.74;97613.00;3123522;28;20072;-41
2021/12/10 03:14:09;;;;;;;19.58;10.32;;;;;;;16.27;66.60;97614.03;3122811;28;20057;-41
2021/12/10 03:15:42;;;;;;;17.42;10.20;;;;;;;16.25;66.51;97605.41;3116395;28;21913;-43
2021/12/10 03:17:18;;;;;;;17.95;9.48;;;;;;;16.25;66.83;97615.28;3123750;28;20502;-41
2021/12/10 03:18:50;;;;;;;18.50;9.63;;;;;;;16.23;66.73;97614.66;3125812;28;20136;-42
2021/12/10 03:20:28;;;;;;;26.60;9.60;;;;;;;16.22;66.73;97608.50;3125002;28;20152;-42
2021/12/10 03:22:00;;;;;;;18.42;9.57;;;;;;;16.21;66.84;97604.16;3125258;28;21172;-46
2021/12/10 03:23:34;;;;;;;17.40;10.20;;;;;;;16.21;66.88;97601.47;3123620;28;20045;-42
2021/12/10 03:25:08;;;;;;;22.73;10.27;;;;;;;16.22;67.11;97599.66;3125949;28;20052;-43
2021/12/10 03:26:40;;;;;;;14.93;9.25;;;;;;;16.22;67.22;97592.44;3124916;28;20052;-43
2021/12/10 03:28:12;;;;;;;22.15;8.55;;;;;;;16.25;67.36;97600.03;3126522;28;20072;-43
2021/12/10 03:29:46;;;;;;;27.13;10.02;;;;;;;16.24;67.27;97585.03;3124934;28;20045;-43
2021/12/10 03:31:20;;;;;;;21.23;9.35;;;;;;;16.26;67.24;97577.59;3121853;28;20118;-44
2021/12/10 03:32:54;;;;;;;21.02;9.30;;;;;;;16.27;67.13;97576.56;3126572;28;20088;-41
2021/12/10 03:34:26;;;;;;;21.42;9.60;;;;;;;16.28;67.10;97580.06;3123655;28;20076;-43
2021/12/10 03:35:58;;;;;;;16.50;9.05;;;;;;;16.28;67.13;97570.19;3125763;28;20069;-41
2021/12/10 03:37:30;;;;;;;15.35;7.97;;;;;;;16.30;67.20;97576.16;3124136;28;20048;-41
2021/12/10 03:39:04;;;;;;;20.60;8.65;;;;;;;16.31;67.07;97576.97;3125979;28;20068;-43
2021/12/10 03:40:36;;;;;;;17.63;9.52;;;;;;;16.31;67.04;97585.81;3124687;28;20412;-43
2021/12/10 03:42:08;;;;;;;17.70;8.13;;;;;;;16.33;66.89;97579.44;3124589;28;20464;-43
2021/12/10 03:43:41;;;;;;;18.85;8.00;;;;;;;16.33;67.28;97582.94;3124106;28;21141;-41
2021/12/10 03:45:15;;;;;;;17.95;9.40;;;;;;;16.33;67.22;97585.59;3122676;28;20059;-43
2021/12/10 03:46:47;;;;;;;18.45;9.93;;;;;;;16.34;67.15;97578.38;3126165;28;20084;-43
2021/12/10 03:48:23;;;;;;;15.27;8.38;;;;;;;16.34;67.33;97581.06;3124850;28;20713;-41
2021/12/10 03:49:55;;;;;;;14.45;7.38;;;;;;;16.34;67.14;97583.75;3125624;28;20154;-43
2021/12/10 03:51:27;;;;;;;17.65;8.98;;;;;;;16.34;67.11;97583.75;3122314;28;20485;-41
2021/12/10 03:52:59;;;;;;;17.60;8.60;;;;;;;16.34;67.21;97581.88;3125477;28;20128;-46
2021/12/10 03:54:33;;;;;;;17.23;7.88;;;;;;;16.34;67.07;97581.88;3124584;28;20041;-44
2021/12/10 03:56:10;;;;;;;14.90;8.18;;;;;;;16.34;67.09;97583.75;3126741;28;20056;-42
2021/12/10 03:57:42;;;;;;;18.33;8.02;;;;;;;16.34;67.12;97581.88;3124363;28;20151;-44
2021/12/10 03:59:16;;;;;;;21.25;9.27;;;;;;;16.33;67.12;97582.13;3123298;28;20537;-41
2021/12/10 04:00:52;;;;;;;15.50;8.13;;;;;;;16.34;67.06;97581.06;3125432;28;20049;-41
2021/12/10 04:02:24;;;;;;;13.25;7.60;;;;;;;16.33;67.00;97582.13;3125069;28;20136;-44
2021/12/10 04:03:59;;;;;;;14.68;7.80;;;;;;;16.34;67.06;97583.75;3125545;28;20048;-41
2021/12/10 04:05:32;;;;;;;12.35;7.38;;;;;;;16.33;67.07;97582.13;3123756;28;20045;-41
2021/12/10 04:07:08;;;;;;;20.50;9.00;;;;;;;16.32;67.20;97578.59;3126845;28;20049;-44
2021/12/10 04:08:40;;;;;;;16.10;9.20;;;;;;;16.31;67.06;97582.31;3124503;28;20071;-42
2021/12/10 04:10:15;;;;;;;23.70;8.18;;;;;;;16.31;67.10;97580.44;3124157;28;20243;-42
2021/12/10 04:11:47;;;;;;;17.85;8.48;;;;;;;16.30;67.16;97580.69;3125047;28;20132;-43
2021/12/10 04:13:19;;;;;;;18.67;8.35;;;;;;;16.30;67.03;97583.34;3124990;28;20080;-41
2021/12/10 04:14:53;;;;;;;15.77;7.38;;;;;;;16.30;66.93;97576.16;3124777;28;20135;-43
2021/12/10 04:16:28;;;;;;;12.15;7.95;;;;;;;16.29;66.94;97584.38;3124189;28;20524;-43
2021/12/10 04:18:00;;;;;;;13.75;7.18;;;;;;;16.29;67.08;97587.03;3123765;28;20646;-42
2021/12/10 04:19:33;;;;;;;21.50;9.05;;;;;;;16.27;66.82;97589.94;3124801;28;20103;-43
2021/12/10 04:21:07;;;;;;;18.98;7.18;;;;;;;16.26;67.14;97588.28;3124249;28;20132;-43
2021/12/10 04:22:39;;;;;;;14.60;7.93;;;;;;;16.26;66.98;97580.25;3125234;28;20414;-41
2021/12/10 04:24:15;;;;;;;12.63;7.72;;;;;;;16.26;66.89;97588.28;3126529;28;20144;-41
2021/12/10 04:25:48;;;;;;;18.13;9.23;;;;;;;16.26;66.89;97571.44;3115116;28;20138;-41
2021/12/10 04:27:20;;;;;;;14.10;8.10;;;;;;;16.25;66.94;97575.16;3111320;28;20144;-44
2021/12/10 04:28:52;;;;;;;19.83;7.70;;;;;;;16.23;66.91;97572.66;3113253;28;20052;-44
2021/12/10 04:30:25;;;;;;;17.35;7.63;;;;;;;16.23;66.95;97570.00;3109816;28;20073;-43
2021/12/10 04:31:58;;;;;;;15.88;7.30;;;;;;;16.23;67.09;97567.31;3112007;28;20088;-42
2021/12/10 04:33:30;;;;;;;15.15;6.78;;;;;;;16.23;67.15;97564.66;3113484;28;20133;-43
2021/12/10 04:35:02;;;;;;;16.58;8.02;;;;;;;16.21;66.88;97564.03;3125726;28;20155;-43
2021/12/10 04:36:35;;;;;;;15.95;7.30;;;;;;;16.22;67.04;97565.69;3124599;28;20505;-42
2021/12/10 04:38:07;;;;;;;12.80;7.13;;;;;;;16.21;67.06;97571.25;3126627;28;20391;-42
2021/12/10 04:39:45;;;;;;;17.25;7.97;;;;;;;16.19;66.97;97558.09;3121957;28;20052;-43
2021/12/10 04:41:18;;;;;;;15.45;8.68;;;;;;;16.18;67.10;97564.47;3125397;28;20053;-44
2021/12/10 04:42:51;;;;;;;16.27;7.35;;;;;;;16.18;67.05;97552.94;3125875;28;20076;-42
2021/12/10 04:44:23;;;;;;;13.75;7.20;;;;;;;16.18;67.15;97561.78;3124295;28;20733;-43
2021/12/10 04:45:57;;;;;;;10.45;7.22;;;;;;;16.15;67.16;97561.41;3118707;28;20061;-43
2021/12/10 04:47:30;;;;;;;23.95;8.57;;;;;;;16.15;67.18;97570.25;3123523;28;20045;-44
2021/12/10 04:49:06;;;;;;;12.13;7.20;;;;;;;16.14;67.13;97571.28;3125974;28;20143;-42
2021/12/10 04:50:38;;;;;;;14.30;6.25;;;;;;;16.13;67.07;97572.34;3123967;28;20503;-42
2021/12/10 04:52:10;;;;;;;22.10;7.78;;;;;;;16.12;67.03;97573.34;3126149;28;20052;-42
2021/12/10 04:53:42;;;;;;;14.35;6.57;;;;;;;16.11;67.05;97569.03;3124132;28;20102;-42
2021/12/10 04:55:16;;;;;;;17.70;8.90;;;;;;;16.10;67.08;97572.72;3123279;28;20076;-46
2021/12/10 04:56:51;;;;;;;16.45;6.82;;;;;;;16.09;67.10;97573.78;3125064;28;20570;-42
2021/12/10 04:58:24;;;;;;;15.88;6.03;;;;;;;16.09;67.07;97571.91;3122910;28;20040;-42
2021/12/10 04:59:57;;;;;;;13.48;6.90;;;;;;;16.08;67.08;97574.81;3126167;28;20059;-42
2021/12/10 05:01:30;;;;;;;15.57;6.97;;;;;;;16.07;67.09;97578.50;3124135;28;20055;-44
2021/12/10 05:03:04;;;;;;;15.75;8.25;;;;;;;16.07;67.28;97583.84;3118969;28;20073;-42
2021/12/10 05:04:37;;;;;;;14.20;7.10;;;;;;;16.06;67.21;97584.91;3122525;28;20495;-44
2021/12/10 05:06:09;;;;;;;15.73;7.32;;;;;;;16.04;67.52;97579.75;3125696;28;20529;-44
2021/12/10 05:07:42;;;;;;;11.80;7.53;;;;;;;16.06;67.43;97592.94;3124598;28;20048;-43
2021/12/10 05:09:15;;;;;;;13.85;6.32;;;;;;;16.08;67.52;97585.53;3124903;28;20126;-52
2021/12/10 05:10:47;;;;;;;12.68;7.03;;;;;;;16.10;67.70;97594.13;3125971;28;20110;-43
2021/12/10 05:12:19;;;;;;;;;;;;;;;16.16;68.00;97593.31;3123516;28;20076;-43
2021/12/10 05:13:52;;;;;;;12.70;7.00;;;;;;;16.21;67.40;97590.78;3126230;28;20011;-43
2021/12/10 05:15:26;;;;;;;16.65;6.75;;;;;;;16.27;67.45;97589.94;3122852;28;20179;-43
2021/12/10 05:17:03;;;;;;;11.35;5.60;;;;;;;16.35;67.25;97585.38;3123665;28;20127;-43
2021/12/10 05:18:39;;;;;;;12.13;6.68;;;;;;;16.42;67.16;97578.97;3124895;28;20068;-45
2021/12/10 05:20:14;;;;;;;13.82;6.13;;;;;;;16.50;67.00;97597.44;3121466;28;20595;-43
2021/12/10 05:21:47;;;;;;;11.68;6.63;;;;;;;16.57;66.90;97591.22;3125325;28;20041;-43
2021/12/10 05:23:21;;;;;;;12.43;6.07;;;;;;;16.64;66.71;97592.81;3121366;28;20049;-41
2021/12/10 05:24:53;;;;;;;12.93;6.68;;;;;;;16.69;66.79;97593.00;3125290;28;20151;-43
2021/12/10 05:26:25;;;;;;;18.95;7.43;;;;;;;16.75;66.62;97597.47;3124696;28;20061;-43
2021/12/10 05:27:59;;;;;;;11.00;5.80;;;;;;;16.82;66.67;97607.34;3126050;28;20476;-44
2021/12/10 05:29:31;;;;;;;13.85;6.55;;;;;;;16.88;66.51;97601.13;3124318;28;20529;-42
2021/12/10 05:31:03;;;;;;;12.05;6.25;;;;;;;16.93;66.37;97607.47;3125521;28;20815;-47
2021/12/10 05:32:36;;;;;;;16.02;6.50;;;;;;;16.98;66.28;97613.00;3122745;28;20057;-43
2021/12/10 05:34:08;;;;;;;12.82;6.30;;;;;;;17.03;66.23;97612.34;3125730;28;20661;-51
2021/12/10 05:35:40;;;;;;;14.27;5.88;;;;;;;17.08;66.12;97617.06;3123690;28;20114;-48
2021/12/10 05:37:13;;;;;;;12.10;4.95;;;;;;;17.11;66.00;97613.94;3124175;28;20131;-46
2021/12/10 05:38:45;;;;;;;14.82;5.53;;;;;;;17.14;65.97;97610.84;3124473;28;20467;-43
2021/12/10 05:40:17;;;;;;;11.13;5.55;;;;;;;17.18;65.87;97612.03;3122270;28;20041;-50
2021/12/10 05:41:50;;;;;;;9.68;4.72;;;;;;;17.19;65.76;97611.81;3125445;28;20049;-47
2021/12/10 05:43:24;;;;;;;10.57;6.45;;;;;;;17.23;65.80;97614.06;3123168;28;20052;-51
2021/12/10 05:44:56;;;;;;;12.23;5.95;;;;;;;17.26;65.79;97618.97;3124526;28;20088;-44
2021/12/10 05:46:28;;;;;;;8.07;4.22;;;;;;;17.28;65.66;97611.53;3122609;28;20573;-45
2021/12/10 05:48:00;;;;;;;10.75;5.53;;;;;;;17.31;65.54;97619.13;3123099;28;20041;-46
2021/12/10 05:49:32;;;;;;;12.60;5.18;;;;;;;17.34;65.48;97622.19;3122559;28;20131;-46
2021/12/10 05:51:04;;;;;;;12.80;6.88;;;;;;;17.37;65.63;97620.94;3124171;28;20041;-46
2021/12/10 05:52:36;;;;;;;9.57;4.97;;;;;;;17.41;65.55;97625.63;3123274;28;20076;-48
2021/12/10 05:54:08;;;;;;;8.00;5.53;;;;;;;17.45;65.71;97630.56;3124510;28;20057;-48
2021/12/10 05:55:41;;;;;;;13.02;4.85;;;;;;;17.49;65.45;97632.56;3121968;28;20044;-43
2021/12/10 05:57:12;;;;;;;14.95;4.60;;;;;;;17.52;65.29;97624.06;3124692;28;20048;-45
2021/12/10 05:58:46;;;;;;;9.70;4.50;;;;;;;17.55;65.15;97631.69;3123952;28;20063;-47
2021/12/10 06:00:21;;;;;;;8.90;4.43;;;;;;;17.57;65.18;97626.91;3123640;28;20133;-43
2021/12/10 06:01:53;;;;;;;13.93;4.72;;;;;;;17.60;65.11;97622.97;3124806;28;20198;-50
2021/12/10 06:03:26;;;;;;;11.52;5.47;;;;;;;17.62;65.08;97624.41;3123177;28;20131;-46
2021/12/10 06:04:58;;;;;;;11.55;5.20;;;;;;;17.65;65.05;97628.50;3124825;28;20052;-49
2021/12/10 06:06:34;;;;;;;9.95;5.80;;;;;;;17.67;65.17;97625.59;3123146;28;20120;-49
2021/12/10 06:08:06;;;;;;;10.15;5.03;;;;;;;17.68;65.16;97629.91;3125955;28;20118;-48
2021/12/10 06:09:39;;;;;;;8.88;5.03;;;;;;;17.70;65.07;97630.53;3124052;28;20128;-49
2021/12/10 06:11:11;;;;;;;13.75;5.25;;;;;;;17.74;65.06;97631.72;3123399;28;20475;-53
2021/12/10 06:12:43;;;;;;;10.15;5.22;;;;;;;17.80;64.70;97630.84;3121401;28;20045;-49
2021/12/10 06:14:16;;;;;;;6.32;4.50;;;;;;;17.82;64.74;97634.13;3122221;28;20083;-44
2021/12/10 06:15:48;;;;;;;9.32;3.88;;;;;;;17.79;61.61;97629.22;3124038;28;20768;-45
2021/12/10 06:17:20;;;;;;;10.55;3.63;;;;;;;17.80;60.96;97622.78;3120788;28;20098;-43
2021/12/10 06:18:52;;;;;;;8.30;4.60;;;;;;;17.85;63.23;97620.28;3123188;28;20989;-46
2021/12/10 06:20:28;;;;;;;11.95;4.75;;;;;;;17.92;63.55;97620.22;3122659;28;20041;-48
2021/12/10 06:22:00;;;;;;;11.48;3.92;;;;;;;17.97;63.85;97629.22;3122341;28;20064;-55
2021/12/10 06:23:33;;;;;;;13.55;4.68;;;;;;;17.91;63.54;97621.25;3124320;28;20167;-46
2021/12/10 06:25:05;;;;;;;11.82;4.07;;;;;;;17.87;63.61;97620.88;3123726;28;20073;-49
2021/12/10 06:26:38;;;;;;;15.30;3.85;;;;;;;17.84;63.40;97622.13;3121687;28;20072;-49
2021/12/10 06:28:10;;;;;;;14.32;3.92;;;;;;;17.82;63.93;97618.84;3123877;28;20681;-47
2021/12/10 06:29:43;;;;;;;13.45;4.45;;;;;;;17.81;63.76;97605.69;3123970;28;20112;-49
2021/12/10 06:31:17;;;;;;;9.10;4.07;;;;;;;17.79;63.63;97608.56;3123497;28;20407;-50
2021/12/10 06:32:51;;;;;;;6.65;3.25;;;;;;;17.80;63.54;97604.88;3124225;28;20063;-47
2021/12/10 06:34:24;;;;;;;7.03;4.18;;;;;;;17.77;63.56;97594.53;3120712;28;20044;-50
2021/12/10 06:36:01;;;;;;;10.32;4.25;;;;;;;17.78;63.46;97600.72;3117549;28;20881;-47
2021/12/10 06:37:32;;;;;;;9.15;4.72;;;;;;;17.77;63.51;97599.06;3115985;28;20060;-49
2021/12/10 06:39:06;;;;;;;9.70;5.68;;;;;;;17.76;63.43;97589.41;3121984;28;20072;-50
2021/12/10 06:40:40;;;;;;;11.05;3.63;;;;;;;17.74;63.50;97588.78;3119634;28;20084;-49
2021/12/10 06:42:12;;;;;;;12.63;4.90;;;;;;;17.82;62.75;97585.84;3119401;28;20080;-43
2021/12/10 06:43:45;;;;;;;17.02;4.78;;;;;;;17.85;62.66;97586.22;3122389;28;20103;-52
2021/12/10 06:45:20;;;;;;;8.90;3.33;;;;;;;17.96;63.09;97581.97;3112701;28;21019;-55
2021/12/10 06:46:52;;;;;;;25.80;3.63;;;;;;;17.90;62.51;97590.91;3121011;28;20075;-49
2021/12/10 06:48:26;;;;;;;10.65;3.92;;;;;;;17.85;62.21;97585.41;3122303;28;20140;-47
2021/12/10 06:49:58;;;;;;;14.45;3.88;;;;;;;17.84;62.19;97578.41;3122501;28;20118;-46
2021/12/10 06:51:31;;;;;;;7.30;2.83;;;;;;;17.83;62.10;97576.78;3125245;28;20595;-46
2021/12/10 06:53:03;;;;;;;9.70;2.78;;;;;;;17.85;61.95;97580.03;3116141;28;20115;-51
2021/12/10 06:54:35;;;;;;;4.45;2.53;;;;;;;17.83;62.20;97576.78;3107667;28;20688;-49
2021/12/10 06:56:07;;;;;;;8.57;2.50;;;;;;;17.84;61.92;97573.03;3121066;28;20041;-55
2021/12/10 06:57:40;;;;;;;3.42;2.38;;;;;;;17.84;61.75;97565.00;3125293;28;20048;-50
2021/12/10 06:59:12;;;;;;;7.43;2.42;;;;;;;17.84;61.50;97557.75;3127368;28;20073;-54
2021/12/10 07:00:48;;;;;;;7.70;3.00;;;;;;;17.83;61.55;97560.69;3124892;28;20072;-54
2021/12/10 07:02:20;;;;;;;6.38;1.90;;;;;;;17.83;61.29;97558.00;3126503;28;20065;-51
2021/12/10 07:03:53;;;;;;;4.47;1.52;;;;;;;17.81;61.32;97552.84;3122905;28;20045;-53
2021/12/10 07:05:26;;;;;;;4.32;2.55;;;;;;;17.82;61.15;97559.03;3120480;28;20075;-49
2021/12/10 07:06:57;;;;;;;8.23;2.35;;;;;;;17.81;61.26;97563.56;3122897;28;20048;-51
2021/12/10 07:08:32;;;;;;;2.28;1.58;;;;;;;17.81;61.00;97557.41;3123438;28;20131;-48
2021/12/10 07:10:04;;;;;;;3.45;1.60;;;;;;;17.81;60.82;97555.53;3126712;28;20601;-51
2021/12/10 07:11:36;;;;;;;4.07;2.10;;;;;;;17.82;60.71;97548.31;3121071;28;20163;-46
2021/12/10 07:13:10;;;;;;;4.68;1.88;;;;;;;17.83;60.73;97541.91;3123738;28;21139;-56
2021/12/10 07:14:43;;;;;;;7.95;2.00;;;;;;;17.87;61.37;97556.50;3111255;28;20081;-50
2021/12/10 07:16:18;;;;;;;9.15;2.17;;;;;;;17.85;61.33;97542.47;3115498;28;20051;-53
2021/12/10 07:17:52;;;;;;;16.08;1.95;;;;;;;17.82;61.26;97542.94;3119120;28;20045;-50
2021/12/10 07:19:26;;;;;;;23.35;3.70;;;;;;;17.86;61.17;97539.59;3122408;28;20126;-50
2021/12/10 07:20:58;;;;;;;11.60;2.33;;;;;;;17.87;61.25;97537.72;3118638;28;20052;-54
2021/12/10 07:22:30;;;;;;;16.92;3.13;;;;;;;17.85;61.25;97535.25;3085426;28;20065;-47